sensor_id;sensor_type;location;lat;lon;timestamp;P1;durP1;ratioP1;P2;durP2;ratioP2
4096;SDS011;2062;50.694;7.246;2023-08-06T00:00:31;4.47;;;1.92;;
4096;SDS011;2062;50.694;7.246;2023-08-06T00:02:58;4.65;;;2.05;;
4096;SDS011;2062;50.694;7.246;2023-08-06T00:05:25;4.50;;;1.63;;
4096;SDS011;2062;50.694;7.246;2023-08-06T00:07:51;6.93;;;2.40;;
4096;SDS011;2062;50.694;7.246;2023-08-06T00:10:18;4.60;;;2.15;;
4096;SDS011;2062;50.694;7.246;2023-08-06T00:12:45;4.70;;;2.00;;
4096;SDS011;2062;50.694;7.246;2023-08-06T00:15:12;5.05;;;1.90;;
4096;SDS011;2062;50.694;7.246;2023-08-06T00:17:40;4.85;;;2.08;;
4096;SDS011;2062;50.694;7.246;2023-08-06T00:20:07;5.53;;;2.20;;
4096;SDS011;2062;50.694;7.246;2023-08-06T00:22:35;7.93;;;2.10;;
4096;SDS011;2062;50.694;7.246;2023-08-06T00:25:03;4.90;;;1.90;;
4096;SDS011;2062;50.694;7.246;2023-08-06T00:27:31;5.85;;;2.03;;
4096;SDS011;2062;50.694;7.246;2023-08-06T00:29:58;5.47;;;2.10;;
4096;SDS011;2062;50.694;7.246;2023-08-06T00:32:25;5.73;;;2.03;;
4096;SDS011;2062;50.694;7.246;2023-08-06T00:34:53;4.72;;;1.80;;
4096;SDS011;2062;50.694;7.246;2023-08-06T00:37:20;6.28;;;1.85;;
4096;SDS011;2062;50.694;7.246;2023-08-06T00:39:47;4.30;;;1.70;;
4096;SDS011;2062;50.694;7.246;2023-08-06T00:42:13;4.70;;;1.70;;
4096;SDS011;2062;50.694;7.246;2023-08-06T00:44:41;5.70;;;1.47;;
4096;SDS011;2062;50.694;7.246;2023-08-06T00:47:08;6.38;;;1.70;;
4096;SDS011;2062;50.694;7.246;2023-08-06T00:49:36;5.30;;;1.95;;
4096;SDS011;2062;50.694;7.246;2023-08-06T00:52:05;4.72;;;1.73;;
4096;SDS011;2062;50.694;7.246;2023-08-06T00:54:34;4.32;;;1.80;;
4096;SDS011;2062;50.694;7.246;2023-08-06T00:57:02;4.53;;;1.40;;
4096;SDS011;2062;50.694;7.246;2023-08-06T00:59:31;6.03;;;1.80;;
4096;SDS011;2062;50.694;7.246;2023-08-06T01:01:58;4.22;;;1.42;;
4096;SDS011;2062;50.694;7.246;2023-08-06T01:04:25;4.00;;;1.50;;
4096;SDS011;2062;50.694;7.246;2023-08-06T01:06:53;4.45;;;1.40;;
4096;SDS011;2062;50.694;7.246;2023-08-06T01:09:43;4.00;;;1.40;;
4096;SDS011;2062;50.694;7.246;2023-08-06T01:12:21;4.93;;;1.67;;
4096;SDS011;2062;50.694;7.246;2023-08-06T01:14:57;5.07;;;1.63;;
4096;SDS011;2062;50.694;7.246;2023-08-06T01:17:29;4.22;;;1.48;;
4096;SDS011;2062;50.694;7.246;2023-08-06T01:19:56;6.43;;;1.85;;
4096;SDS011;2062;50.694;7.246;2023-08-06T01:22:24;4.87;;;1.83;;
4096;SDS011;2062;50.694;7.246;2023-08-06T01:24:51;5.50;;;1.88;;
4096;SDS011;2062;50.694;7.246;2023-08-06T01:27:21;5.22;;;1.70;;
4096;SDS011;2062;50.694;7.246;2023-08-06T01:29:56;4.90;;;1.65;;
4096;SDS011;2062;50.694;7.246;2023-08-06T01:32:29;6.50;;;2.08;;
4096;SDS011;2062;50.694;7.246;2023-08-06T01:34:58;5.60;;;1.60;;
4096;SDS011;2062;50.694;7.246;2023-08-06T01:37:27;4.25;;;1.52;;
4096;SDS011;2062;50.694;7.246;2023-08-06T01:39:55;4.53;;;1.70;;
4096;SDS011;2062;50.694;7.246;2023-08-06T01:42:21;4.80;;;1.52;;
4096;SDS011;2062;50.694;7.246;2023-08-06T01:44:48;5.82;;;1.80;;
4096;SDS011;2062;50.694;7.246;2023-08-06T01:47:15;5.33;;;2.03;;
4096;SDS011;2062;50.694;7.246;2023-08-06T01:49:42;5.88;;;1.80;;
4096;SDS011;2062;50.694;7.246;2023-08-06T01:52:08;5.57;;;2.08;;
4096;SDS011;2062;50.694;7.246;2023-08-06T01:54:37;7.80;;;2.20;;
4096;SDS011;2062;50.694;7.246;2023-08-06T01:57:04;5.65;;;1.73;;
4096;SDS011;2062;50.694;7.246;2023-08-06T01:59:31;5.10;;;1.47;;
4096;SDS011;2062;50.694;7.246;2023-08-06T02:01:58;4.53;;;1.60;;
4096;SDS011;2062;50.694;7.246;2023-08-06T02:04:25;6.97;;;1.70;;
4096;SDS011;2062;50.694;7.246;2023-08-06T02:06:52;5.72;;;1.73;;
4096;SDS011;2062;50.694;7.246;2023-08-06T02:09:19;4.68;;;1.58;;
4096;SDS011;2062;50.694;7.246;2023-08-06T02:11:47;6.43;;;1.80;;
4096;SDS011;2062;50.694;7.246;2023-08-06T02:14:13;4.90;;;1.65;;
4096;SDS011;2062;50.694;7.246;2023-08-06T02:16:40;5.05;;;1.55;;
4096;SDS011;2062;50.694;7.246;2023-08-06T02:19:07;6.32;;;1.77;;
4096;SDS011;2062;50.694;7.246;2023-08-06T02:21:34;6.68;;;1.52;;
4096;SDS011;2062;50.694;7.246;2023-08-06T02:24:00;5.30;;;1.70;;
4096;SDS011;2062;50.694;7.246;2023-08-06T02:26:27;5.10;;;1.60;;
4096;SDS011;2062;50.694;7.246;2023-08-06T02:28:55;4.63;;;1.50;;
4096;SDS011;2062;50.694;7.246;2023-08-06T02:31:22;5.78;;;1.60;;
4096;SDS011;2062;50.694;7.246;2023-08-06T02:33:49;6.07;;;2.00;;
4096;SDS011;2062;50.694;7.246;2023-08-06T02:36:16;5.00;;;2.13;;
4096;SDS011;2062;50.694;7.246;2023-08-06T02:38:42;5.22;;;1.80;;
4096;SDS011;2062;50.694;7.246;2023-08-06T02:41:09;5.05;;;2.15;;
4096;SDS011;2062;50.694;7.246;2023-08-06T02:43:36;4.57;;;1.80;;
4096;SDS011;2062;50.694;7.246;2023-08-06T02:46:04;5.78;;;1.60;;
4096;SDS011;2062;50.694;7.246;2023-08-06T02:48:31;4.83;;;1.70;;
4096;SDS011;2062;50.694;7.246;2023-08-06T02:50:58;5.43;;;1.70;;
4096;SDS011;2062;50.694;7.246;2023-08-06T02:53:25;4.55;;;1.60;;
4096;SDS011;2062;50.694;7.246;2023-08-06T02:55:52;5.15;;;1.92;;
4096;SDS011;2062;50.694;7.246;2023-08-06T02:58:19;7.18;;;1.90;;
4096;SDS011;2062;50.694;7.246;2023-08-06T03:00:47;4.47;;;1.60;;
4096;SDS011;2062;50.694;7.246;2023-08-06T03:03:27;4.78;;;1.63;;
4096;SDS011;2062;50.694;7.246;2023-08-06T03:05:53;6.60;;;1.80;;
4096;SDS011;2062;50.694;7.246;2023-08-06T03:08:19;4.50;;;1.67;;
4096;SDS011;2062;50.694;7.246;2023-08-06T03:10:47;5.38;;;1.70;;
4096;SDS011;2062;50.694;7.246;2023-08-06T03:13:14;4.00;;;1.43;;
4096;SDS011;2062;50.694;7.246;2023-08-06T03:15:41;6.82;;;1.58;;
4096;SDS011;2062;50.694;7.246;2023-08-06T03:18:08;4.35;;;1.23;;
4096;SDS011;2062;50.694;7.246;2023-08-06T03:20:36;4.07;;;1.23;;
4096;SDS011;2062;50.694;7.246;2023-08-06T03:23:03;4.50;;;1.30;;
4096;SDS011;2062;50.694;7.246;2023-08-06T03:25:30;5.43;;;1.60;;
4096;SDS011;2062;50.694;7.246;2023-08-06T03:27:56;5.55;;;1.60;;
4096;SDS011;2062;50.694;7.246;2023-08-06T03:30:23;5.10;;;1.52;;
4096;SDS011;2062;50.694;7.246;2023-08-06T03:32:50;4.60;;;1.25;;
4096;SDS011;2062;50.694;7.246;2023-08-06T03:35:17;3.95;;;1.25;;
4096;SDS011;2062;50.694;7.246;2023-08-06T03:37:45;4.07;;;1.10;;
4096;SDS011;2062;50.694;7.246;2023-08-06T03:40:12;4.38;;;1.35;;
4096;SDS011;2062;50.694;7.246;2023-08-06T03:42:38;6.22;;;1.17;;
4096;SDS011;2062;50.694;7.246;2023-08-06T03:45:06;5.18;;;1.35;;
4096;SDS011;2062;50.694;7.246;2023-08-06T03:47:33;5.45;;;1.40;;
4096;SDS011;2062;50.694;7.246;2023-08-06T03:50:00;4.30;;;1.10;;
4096;SDS011;2062;50.694;7.246;2023-08-06T03:52:27;6.03;;;1.42;;
4096;SDS011;2062;50.694;7.246;2023-08-06T03:54:55;5.10;;;1.25;;
4096;SDS011;2062;50.694;7.246;2023-08-06T03:57:22;4.65;;;0.98;;
4096;SDS011;2062;50.694;7.246;2023-08-06T03:59:49;4.40;;;1.10;;
4096;SDS011;2062;50.694;7.246;2023-08-06T04:02:15;7.50;;;1.40;;
4096;SDS011;2062;50.694;7.246;2023-08-06T04:04:42;4.65;;;1.00;;
4096;SDS011;2062;50.694;7.246;2023-08-06T04:07:09;5.22;;;1.25;;
4096;SDS011;2062;50.694;7.246;2023-08-06T04:09:50;3.65;;;1.30;;
4096;SDS011;2062;50.694;7.246;2023-08-06T04:12:23;5.00;;;1.67;;
4096;SDS011;2062;50.694;7.246;2023-08-06T04:14:50;3.43;;;1.10;;
4096;SDS011;2062;50.694;7.246;2023-08-06T04:17:17;5.47;;;1.45;;
4096;SDS011;2062;50.694;7.246;2023-08-06T04:19:46;4.65;;;1.10;;
4096;SDS011;2062;50.694;7.246;2023-08-06T04:22:13;3.65;;;0.95;;
4096;SDS011;2062;50.694;7.246;2023-08-06T04:24:41;3.85;;;1.10;;
4096;SDS011;2062;50.694;7.246;2023-08-06T04:27:09;3.90;;;1.00;;
4096;SDS011;2062;50.694;7.246;2023-08-06T04:29:36;7.07;;;1.20;;
4096;SDS011;2062;50.694;7.246;2023-08-06T04:32:05;3.92;;;1.10;;
4096;SDS011;2062;50.694;7.246;2023-08-06T04:34:33;3.45;;;0.80;;
4096;SDS011;2062;50.694;7.246;2023-08-06T04:37:00;4.13;;;0.90;;
4096;SDS011;2062;50.694;7.246;2023-08-06T04:39:28;3.47;;;1.03;;
4096;SDS011;2062;50.694;7.246;2023-08-06T04:41:55;3.53;;;0.80;;
4096;SDS011;2062;50.694;7.246;2023-08-06T04:44:23;3.95;;;1.10;;
4096;SDS011;2062;50.694;7.246;2023-08-06T04:46:50;4.47;;;1.02;;
4096;SDS011;2062;50.694;7.246;2023-08-06T04:49:17;3.70;;;0.95;;
4096;SDS011;2062;50.694;7.246;2023-08-06T04:51:44;3.93;;;0.80;;
4096;SDS011;2062;50.694;7.246;2023-08-06T04:54:11;3.78;;;0.70;;
4096;SDS011;2062;50.694;7.246;2023-08-06T04:56:37;3.20;;;0.80;;
4096;SDS011;2062;50.694;7.246;2023-08-06T04:59:04;4.65;;;0.82;;
4096;SDS011;2062;50.694;7.246;2023-08-06T05:01:33;3.42;;;0.95;;
4096;SDS011;2062;50.694;7.246;2023-08-06T05:04:00;3.97;;;0.90;;
4096;SDS011;2062;50.694;7.246;2023-08-06T05:06:26;3.10;;;0.70;;
4096;SDS011;2062;50.694;7.246;2023-08-06T05:08:53;2.92;;;0.70;;
4096;SDS011;2062;50.694;7.246;2023-08-06T05:11:20;4.28;;;0.85;;
4096;SDS011;2062;50.694;7.246;2023-08-06T05:13:47;3.22;;;0.63;;
4096;SDS011;2062;50.694;7.246;2023-08-06T05:16:13;3.07;;;0.70;;
4096;SDS011;2062;50.694;7.246;2023-08-06T05:18:41;3.38;;;0.70;;
4096;SDS011;2062;50.694;7.246;2023-08-06T05:21:08;3.47;;;0.73;;
4096;SDS011;2062;50.694;7.246;2023-08-06T05:23:35;3.30;;;0.60;;
4096;SDS011;2062;50.694;7.246;2023-08-06T05:26:02;2.90;;;0.70;;
4096;SDS011;2062;50.694;7.246;2023-08-06T05:28:29;2.57;;;0.60;;
4096;SDS011;2062;50.694;7.246;2023-08-06T05:30:55;3.80;;;0.80;;
4096;SDS011;2062;50.694;7.246;2023-08-06T05:33:22;3.08;;;0.80;;
4096;SDS011;2062;50.694;7.246;2023-08-06T05:35:50;2.95;;;0.60;;
4096;SDS011;2062;50.694;7.246;2023-08-06T05:38:17;2.95;;;0.70;;
4096;SDS011;2062;50.694;7.246;2023-08-06T05:40:44;3.57;;;0.60;;
4096;SDS011;2062;50.694;7.246;2023-08-06T05:43:11;2.58;;;0.60;;
4096;SDS011;2062;50.694;7.246;2023-08-06T05:45:37;3.78;;;0.90;;
4096;SDS011;2062;50.694;7.246;2023-08-06T05:48:04;2.40;;;0.60;;
4096;SDS011;2062;50.694;7.246;2023-08-06T05:50:31;3.05;;;0.60;;
4096;SDS011;2062;50.694;7.246;2023-08-06T05:52:59;3.07;;;0.67;;
4096;SDS011;2062;50.694;7.246;2023-08-06T05:55:26;2.13;;;0.50;;
4096;SDS011;2062;50.694;7.246;2023-08-06T05:57:53;2.72;;;0.60;;
4096;SDS011;2062;50.694;7.246;2023-08-06T06:00:20;2.75;;;0.73;;
4096;SDS011;2062;50.694;7.246;2023-08-06T06:02:47;2.65;;;0.60;;
4096;SDS011;2062;50.694;7.246;2023-08-06T06:05:14;2.60;;;0.60;;
4096;SDS011;2062;50.694;7.246;2023-08-06T06:07:41;3.33;;;0.77;;
4096;SDS011;2062;50.694;7.246;2023-08-06T06:10:09;3.20;;;0.70;;
4096;SDS011;2062;50.694;7.246;2023-08-06T06:12:37;4.20;;;0.80;;
4096;SDS011;2062;50.694;7.246;2023-08-06T06:15:05;4.95;;;0.80;;
4096;SDS011;2062;50.694;7.246;2023-08-06T06:17:32;3.13;;;0.80;;
4096;SDS011;2062;50.694;7.246;2023-08-06T06:19:59;3.00;;;0.75;;
4096;SDS011;2062;50.694;7.246;2023-08-06T06:22:26;3.72;;;0.90;;
4096;SDS011;2062;50.694;7.246;2023-08-06T06:24:53;5.93;;;1.00;;
4096;SDS011;2062;50.694;7.246;2023-08-06T06:27:21;3.33;;;0.88;;
4096;SDS011;2062;50.694;7.246;2023-08-06T06:29:48;4.27;;;1.20;;
4096;SDS011;2062;50.694;7.246;2023-08-06T06:32:15;3.40;;;0.88;;
4096;SDS011;2062;50.694;7.246;2023-08-06T06:34:42;3.08;;;0.77;;
4096;SDS011;2062;50.694;7.246;2023-08-06T06:37:08;4.57;;;0.80;;
4096;SDS011;2062;50.694;7.246;2023-08-06T06:39:35;3.80;;;0.93;;
4096;SDS011;2062;50.694;7.246;2023-08-06T06:42:02;3.37;;;0.70;;
4096;SDS011;2062;50.694;7.246;2023-08-06T06:44:30;3.80;;;0.90;;
4096;SDS011;2062;50.694;7.246;2023-08-06T06:46:57;3.10;;;0.80;;
4096;SDS011;2062;50.694;7.246;2023-08-06T06:49:24;3.10;;;0.80;;
4096;SDS011;2062;50.694;7.246;2023-08-06T06:51:51;3.20;;;0.80;;
4096;SDS011;2062;50.694;7.246;2023-08-06T06:54:17;3.30;;;0.70;;
4096;SDS011;2062;50.694;7.246;2023-08-06T06:56:44;3.20;;;0.80;;
4096;SDS011;2062;50.694;7.246;2023-08-06T06:59:11;4.90;;;0.80;;
4096;SDS011;2062;50.694;7.246;2023-08-06T07:01:39;2.60;;;0.70;;
4096;SDS011;2062;50.694;7.246;2023-08-06T07:04:06;3.30;;;0.70;;
4096;SDS011;2062;50.694;7.246;2023-08-06T07:06:33;2.90;;;0.63;;
4096;SDS011;2062;50.694;7.246;2023-08-06T07:09:00;3.25;;;0.75;;
4096;SDS011;2062;50.694;7.246;2023-08-06T07:11:27;4.25;;;0.70;;
4096;SDS011;2062;50.694;7.246;2023-08-06T07:13:55;3.78;;;0.75;;
4096;SDS011;2062;50.694;7.246;2023-08-06T07:16:23;3.22;;;0.70;;
4096;SDS011;2062;50.694;7.246;2023-08-06T07:18:53;4.93;;;0.80;;
4096;SDS011;2062;50.694;7.246;2023-08-06T07:21:20;2.80;;;0.75;;
4096;SDS011;2062;50.694;7.246;2023-08-06T07:23:47;4.05;;;1.10;;
4096;SDS011;2062;50.694;7.246;2023-08-06T07:26:15;2.95;;;0.60;;
4096;SDS011;2062;50.694;7.246;2023-08-06T07:28:42;2.75;;;0.70;;
4096;SDS011;2062;50.694;7.246;2023-08-06T07:31:09;3.37;;;0.80;;
4096;SDS011;2062;50.694;7.246;2023-08-06T07:33:36;3.33;;;0.80;;
4096;SDS011;2062;50.694;7.246;2023-08-06T07:36:12;4.35;;;0.85;;
4096;SDS011;2062;50.694;7.246;2023-08-06T07:38:39;4.85;;;1.00;;
4096;SDS011;2062;50.694;7.246;2023-08-06T07:41:06;3.22;;;0.90;;
4096;SDS011;2062;50.694;7.246;2023-08-06T07:43:34;3.50;;;1.03;;
4096;SDS011;2062;50.694;7.246;2023-08-06T07:46:01;3.20;;;1.00;;
4096;SDS011;2062;50.694;7.246;2023-08-06T07:48:28;5.38;;;1.10;;
4096;SDS011;2062;50.694;7.246;2023-08-06T07:50:56;3.30;;;0.82;;
4096;SDS011;2062;50.694;7.246;2023-08-06T07:53:25;4.85;;;1.13;;
4096;SDS011;2062;50.694;7.246;2023-08-06T07:55:54;3.03;;;0.80;;
4096;SDS011;2062;50.694;7.246;2023-08-06T07:58:22;3.30;;;1.08;;
4096;SDS011;2062;50.694;7.246;2023-08-06T08:00:50;3.35;;;1.00;;
4096;SDS011;2062;50.694;7.246;2023-08-06T08:03:17;3.65;;;1.10;;
4096;SDS011;2062;50.694;7.246;2023-08-06T08:05:44;5.07;;;1.00;;
4096;SDS011;2062;50.694;7.246;2023-08-06T08:08:11;4.20;;;1.00;;
4096;SDS011;2062;50.694;7.246;2023-08-06T08:10:40;3.92;;;1.10;;
4096;SDS011;2062;50.694;7.246;2023-08-06T08:13:06;4.30;;;1.10;;
4096;SDS011;2062;50.694;7.246;2023-08-06T08:15:33;3.40;;;1.10;;
4096;SDS011;2062;50.694;7.246;2023-08-06T08:18:00;3.92;;;1.10;;
4096;SDS011;2062;50.694;7.246;2023-08-06T08:20:27;3.43;;;1.10;;
4096;SDS011;2062;50.694;7.246;2023-08-06T08:22:57;3.80;;;1.10;;
4096;SDS011;2062;50.694;7.246;2023-08-06T08:25:25;5.93;;;1.02;;
4096;SDS011;2062;50.694;7.246;2023-08-06T08:27:53;4.25;;;1.20;;
4096;SDS011;2062;50.694;7.246;2023-08-06T08:30:20;5.40;;;1.20;;
4096;SDS011;2062;50.694;7.246;2023-08-06T08:32:47;3.30;;;1.10;;
4096;SDS011;2062;50.694;7.246;2023-08-06T08:35:14;3.47;;;1.20;;
4096;SDS011;2062;50.694;7.246;2023-08-06T08:37:41;4.30;;;1.60;;
4096;SDS011;2062;50.694;7.246;2023-08-06T08:40:08;3.60;;;1.30;;
4096;SDS011;2062;50.694;7.246;2023-08-06T08:42:36;4.65;;;1.60;;
4096;SDS011;2062;50.694;7.246;2023-08-06T08:45:05;4.17;;;1.40;;
4096;SDS011;2062;50.694;7.246;2023-08-06T08:47:37;3.90;;;1.35;;
4096;SDS011;2062;50.694;7.246;2023-08-06T08:50:05;4.07;;;1.30;;
4096;SDS011;2062;50.694;7.246;2023-08-06T08:52:34;4.80;;;1.30;;
4096;SDS011;2062;50.694;7.246;2023-08-06T08:55:02;5.20;;;1.75;;
4096;SDS011;2062;50.694;7.246;2023-08-06T08:57:29;3.80;;;1.47;;
4096;SDS011;2062;50.694;7.246;2023-08-06T08:59:56;5.55;;;1.35;;
4096;SDS011;2062;50.694;7.246;2023-08-06T09:02:24;4.90;;;1.80;;
4096;SDS011;2062;50.694;7.246;2023-08-06T09:04:54;4.53;;;1.48;;
4096;SDS011;2062;50.694;7.246;2023-08-06T09:07:24;4.50;;;1.50;;
4096;SDS011;2062;50.694;7.246;2023-08-06T09:09:52;4.47;;;1.30;;
4096;SDS011;2062;50.694;7.246;2023-08-06T09:12:20;6.15;;;1.58;;
4096;SDS011;2062;50.694;7.246;2023-08-06T09:14:48;5.95;;;1.60;;
4096;SDS011;2062;50.694;7.246;2023-08-06T09:17:15;4.80;;;1.48;;
4096;SDS011;2062;50.694;7.246;2023-08-06T09:19:46;3.95;;;1.55;;
4096;SDS011;2062;50.694;7.246;2023-08-06T09:22:14;4.20;;;1.60;;
4096;SDS011;2062;50.694;7.246;2023-08-06T09:24:41;4.60;;;1.30;;
4096;SDS011;2062;50.694;7.246;2023-08-06T09:27:11;5.82;;;1.80;;
4096;SDS011;2062;50.694;7.246;2023-08-06T09:29:42;5.93;;;1.40;;
4096;SDS011;2062;50.694;7.246;2023-08-06T09:32:10;4.07;;;1.70;;
4096;SDS011;2062;50.694;7.246;2023-08-06T09:34:38;3.70;;;1.33;;
4096;SDS011;2062;50.694;7.246;2023-08-06T09:37:08;3.60;;;1.27;;
4096;SDS011;2062;50.694;7.246;2023-08-06T09:39:35;3.90;;;1.42;;
4096;SDS011;2062;50.694;7.246;2023-08-06T09:42:02;4.13;;;1.25;;
4096;SDS011;2062;50.694;7.246;2023-08-06T09:44:31;2.60;;;0.63;;
4096;SDS011;2062;50.694;7.246;2023-08-06T09:46:59;2.90;;;0.70;;
4096;SDS011;2062;50.694;7.246;2023-08-06T09:49:28;2.53;;;0.70;;
4096;SDS011;2062;50.694;7.246;2023-08-06T09:52:09;2.33;;;0.60;;
4096;SDS011;2062;50.694;7.246;2023-08-06T09:54:37;3.92;;;0.60;;
4096;SDS011;2062;50.694;7.246;2023-08-06T09:57:05;4.25;;;0.60;;
4096;SDS011;2062;50.694;7.246;2023-08-06T09:59:32;3.93;;;0.70;;
4096;SDS011;2062;50.694;7.246;2023-08-06T10:01:59;2.00;;;0.40;;
4096;SDS011;2062;50.694;7.246;2023-08-06T10:04:26;2.92;;;0.47;;
4096;SDS011;2062;50.694;7.246;2023-08-06T10:06:55;2.85;;;0.65;;
4096;SDS011;2062;50.694;7.246;2023-08-06T10:09:24;2.70;;;0.60;;
4096;SDS011;2062;50.694;7.246;2023-08-06T10:11:51;2.27;;;0.50;;
4096;SDS011;2062;50.694;7.246;2023-08-06T10:14:19;2.55;;;0.50;;
4096;SDS011;2062;50.694;7.246;2023-08-06T10:16:51;2.03;;;0.40;;
4096;SDS011;2062;50.694;7.246;2023-08-06T10:19:18;2.40;;;0.60;;
4096;SDS011;2062;50.694;7.246;2023-08-06T10:24:48;2.10;;;0.50;;
4096;SDS011;2062;50.694;7.246;2023-08-06T10:27:19;1.85;;;0.30;;
4096;SDS011;2062;50.694;7.246;2023-08-06T10:29:47;2.17;;;0.50;;
4096;SDS011;2062;50.694;7.246;2023-08-06T10:32:15;2.50;;;0.60;;
4096;SDS011;2062;50.694;7.246;2023-08-06T10:34:55;3.63;;;0.68;;
4096;SDS011;2062;50.694;7.246;2023-08-06T10:37:23;3.30;;;0.80;;
4096;SDS011;2062;50.694;7.246;2023-08-06T10:39:52;5.30;;;0.93;;
4096;SDS011;2062;50.694;7.246;2023-08-06T10:42:19;4.72;;;1.08;;
4096;SDS011;2062;50.694;7.246;2023-08-06T10:47:39;3.38;;;0.88;;
4096;SDS011;2062;50.694;7.246;2023-08-06T10:50:06;3.40;;;1.13;;
4096;SDS011;2062;50.694;7.246;2023-08-06T10:52:33;4.45;;;1.45;;
4096;SDS011;2062;50.694;7.246;2023-08-06T10:55:02;6.05;;;1.40;;
4096;SDS011;2062;50.694;7.246;2023-08-06T10:57:29;4.28;;;1.05;;
4096;SDS011;2062;50.694;7.246;2023-08-06T10:59:56;4.68;;;1.10;;
4096;SDS011;2062;50.694;7.246;2023-08-06T11:02:23;3.87;;;1.00;;
4096;SDS011;2062;50.694;7.246;2023-08-06T11:04:50;4.25;;;1.10;;
4096;SDS011;2062;50.694;7.246;2023-08-06T11:07:17;4.60;;;1.10;;
4096;SDS011;2062;50.694;7.246;2023-08-06T11:09:44;4.00;;;1.00;;
4096;SDS011;2062;50.694;7.246;2023-08-06T11:12:12;5.35;;;1.30;;
4096;SDS011;2062;50.694;7.246;2023-08-06T11:14:49;5.87;;;1.50;;
4096;SDS011;2062;50.694;7.246;2023-08-06T11:17:16;4.70;;;1.15;;
4096;SDS011;2062;50.694;7.246;2023-08-06T11:19:44;6.28;;;1.17;;
4096;SDS011;2062;50.694;7.246;2023-08-06T11:22:11;3.65;;;0.98;;
4096;SDS011;2062;50.694;7.246;2023-08-06T11:24:38;3.75;;;1.00;;
4096;SDS011;2062;50.694;7.246;2023-08-06T11:27:12;5.27;;;0.93;;
4096;SDS011;2062;50.694;7.246;2023-08-06T11:29:39;4.53;;;1.00;;
4096;SDS011;2062;50.694;7.246;2023-08-06T11:32:06;5.35;;;1.10;;
4096;SDS011;2062;50.694;7.246;2023-08-06T11:34:34;4.75;;;0.90;;
4096;SDS011;2062;50.694;7.246;2023-08-06T11:37:02;6.07;;;1.10;;
4096;SDS011;2062;50.694;7.246;2023-08-06T11:39:30;5.87;;;1.00;;
4096;SDS011;2062;50.694;7.246;2023-08-06T11:41:57;4.45;;;1.10;;
4096;SDS011;2062;50.694;7.246;2023-08-06T11:44:29;5.05;;;1.20;;
4096;SDS011;2062;50.694;7.246;2023-08-06T11:46:57;3.78;;;0.82;;
4096;SDS011;2062;50.694;7.246;2023-08-06T11:49:38;4.10;;;1.00;;
4096;SDS011;2062;50.694;7.246;2023-08-06T11:52:08;4.80;;;1.10;;
4096;SDS011;2062;50.694;7.246;2023-08-06T11:54:40;4.25;;;1.02;;
4096;SDS011;2062;50.694;7.246;2023-08-06T11:57:07;6.20;;;1.67;;
4096;SDS011;2062;50.694;7.246;2023-08-06T11:59:36;5.68;;;1.30;;
4096;SDS011;2062;50.694;7.246;2023-08-06T12:02:03;5.55;;;1.00;;
4096;SDS011;2062;50.694;7.246;2023-08-06T12:04:31;4.43;;;1.17;;
4096;SDS011;2062;50.694;7.246;2023-08-06T12:07:04;4.90;;;1.17;;
4096;SDS011;2062;50.694;7.246;2023-08-06T12:09:32;4.85;;;1.50;;
4096;SDS011;2062;50.694;7.246;2023-08-06T12:12:01;6.63;;;1.40;;
4096;SDS011;2062;50.694;7.246;2023-08-06T12:14:28;5.18;;;1.40;;
4096;SDS011;2062;50.694;7.246;2023-08-06T12:16:56;4.03;;;1.17;;
4096;SDS011;2062;50.694;7.246;2023-08-06T12:19:23;4.57;;;1.35;;
4096;SDS011;2062;50.694;7.246;2023-08-06T12:21:51;6.13;;;1.83;;
4096;SDS011;2062;50.694;7.246;2023-08-06T12:24:17;6.22;;;1.73;;
4096;SDS011;2062;50.694;7.246;2023-08-06T12:26:44;5.57;;;1.50;;
4096;SDS011;2062;50.694;7.246;2023-08-06T12:29:11;4.57;;;1.43;;
4096;SDS011;2062;50.694;7.246;2023-08-06T12:31:38;4.47;;;1.50;;
4096;SDS011;2062;50.694;7.246;2023-08-06T12:34:06;5.55;;;1.63;;
4096;SDS011;2062;50.694;7.246;2023-08-06T12:36:33;4.50;;;1.42;;
4096;SDS011;2062;50.694;7.246;2023-08-06T12:39:00;5.95;;;1.55;;
4096;SDS011;2062;50.694;7.246;2023-08-06T12:41:26;5.50;;;1.73;;
4096;SDS011;2062;50.694;7.246;2023-08-06T12:43:53;5.85;;;1.70;;
4096;SDS011;2062;50.694;7.246;2023-08-06T12:46:20;4.88;;;1.70;;
4096;SDS011;2062;50.694;7.246;2023-08-06T12:48:47;5.50;;;1.60;;
4096;SDS011;2062;50.694;7.246;2023-08-06T12:51:15;4.35;;;1.50;;
4096;SDS011;2062;50.694;7.246;2023-08-06T12:53:42;6.87;;;1.77;;
4096;SDS011;2062;50.694;7.246;2023-08-06T12:56:08;4.75;;;1.58;;
4096;SDS011;2062;50.694;7.246;2023-08-06T12:58:35;3.67;;;1.38;;
4096;SDS011;2062;50.694;7.246;2023-08-06T13:01:02;4.45;;;1.40;;
4096;SDS011;2062;50.694;7.246;2023-08-06T13:03:29;4.63;;;1.40;;
4096;SDS011;2062;50.694;7.246;2023-08-06T13:05:55;3.83;;;1.30;;
4096;SDS011;2062;50.694;7.246;2023-08-06T13:08:24;4.47;;;1.40;;
4096;SDS011;2062;50.694;7.246;2023-08-06T13:10:51;4.45;;;1.42;;
4096;SDS011;2062;50.694;7.246;2023-08-06T13:13:18;3.92;;;1.30;;
4096;SDS011;2062;50.694;7.246;2023-08-06T13:15:45;4.07;;;1.23;;
4096;SDS011;2062;50.694;7.246;2023-08-06T13:18:11;6.97;;;1.20;;
4096;SDS011;2062;50.694;7.246;2023-08-06T13:20:38;4.90;;;1.15;;
4096;SDS011;2062;50.694;7.246;2023-08-06T13:23:06;3.47;;;1.00;;
4096;SDS011;2062;50.694;7.246;2023-08-06T13:25:34;3.60;;;1.10;;
4096;SDS011;2062;50.694;7.246;2023-08-06T13:28:02;5.05;;;1.30;;
4096;SDS011;2062;50.694;7.246;2023-08-06T13:30:29;3.47;;;1.10;;
4096;SDS011;2062;50.694;7.246;2023-08-06T13:32:55;3.40;;;0.93;;
4096;SDS011;2062;50.694;7.246;2023-08-06T13:35:23;2.97;;;0.90;;
4096;SDS011;2062;50.694;7.246;2023-08-06T13:37:50;4.22;;;0.88;;
4096;SDS011;2062;50.694;7.246;2023-08-06T13:40:16;3.92;;;0.88;;
4096;SDS011;2062;50.694;7.246;2023-08-06T13:42:45;3.83;;;0.80;;
4096;SDS011;2062;50.694;7.246;2023-08-06T13:45:11;3.72;;;1.00;;
4096;SDS011;2062;50.694;7.246;2023-08-06T13:47:38;3.05;;;0.90;;
4096;SDS011;2062;50.694;7.246;2023-08-06T13:50:05;4.55;;;1.00;;
4096;SDS011;2062;50.694;7.246;2023-08-06T13:52:32;3.40;;;1.00;;
4096;SDS011;2062;50.694;7.246;2023-08-06T13:55:00;3.97;;;1.23;;
4096;SDS011;2062;50.694;7.246;2023-08-06T13:57:28;4.63;;;1.63;;
4096;SDS011;2062;50.694;7.246;2023-08-06T13:59:57;4.03;;;1.58;;
4096;SDS011;2062;50.694;7.246;2023-08-06T14:02:23;3.88;;;1.42;;
4096;SDS011;2062;50.694;7.246;2023-08-06T14:04:51;5.75;;;1.65;;
4096;SDS011;2062;50.694;7.246;2023-08-06T14:07:18;7.87;;;1.70;;
4096;SDS011;2062;50.694;7.246;2023-08-06T14:09:45;5.30;;;1.83;;
4096;SDS011;2062;50.694;7.246;2023-08-06T14:12:14;4.88;;;1.85;;
4096;SDS011;2062;50.694;7.246;2023-08-06T14:14:41;4.72;;;1.70;;
4096;SDS011;2062;50.694;7.246;2023-08-06T14:17:09;4.50;;;1.80;;
4096;SDS011;2062;50.694;7.246;2023-08-06T14:19:36;4.63;;;1.77;;
4096;SDS011;2062;50.694;7.246;2023-08-06T14:22:03;5.03;;;1.75;;
4096;SDS011;2062;50.694;7.246;2023-08-06T14:24:29;5.40;;;1.60;;
4096;SDS011;2062;50.694;7.246;2023-08-06T14:26:56;6.10;;;1.77;;
4096;SDS011;2062;50.694;7.246;2023-08-06T14:29:23;4.30;;;1.20;;
4096;SDS011;2062;50.694;7.246;2023-08-06T14:31:50;4.20;;;1.20;;
4096;SDS011;2062;50.694;7.246;2023-08-06T14:34:19;5.50;;;1.20;;
4096;SDS011;2062;50.694;7.246;2023-08-06T14:36:45;3.95;;;1.50;;
4096;SDS011;2062;50.694;7.246;2023-08-06T14:39:12;4.68;;;1.65;;
4096;SDS011;2062;50.694;7.246;2023-08-06T14:41:39;4.18;;;1.23;;
4096;SDS011;2062;50.694;7.246;2023-08-06T14:44:06;5.03;;;1.10;;
4096;SDS011;2062;50.694;7.246;2023-08-06T14:46:33;5.57;;;1.20;;
4096;SDS011;2062;50.694;7.246;2023-08-06T14:49:00;6.85;;;1.20;;
4096;SDS011;2062;50.694;7.246;2023-08-06T14:51:28;5.05;;;1.40;;
4096;SDS011;2062;50.694;7.246;2023-08-06T14:53:56;4.05;;;1.10;;
4096;SDS011;2062;50.694;7.246;2023-08-06T14:56:22;3.63;;;1.60;;
4096;SDS011;2062;50.694;7.246;2023-08-06T14:58:49;5.20;;;0.95;;
4096;SDS011;2062;50.694;7.246;2023-08-06T15:01:16;4.28;;;1.13;;
4096;SDS011;2062;50.694;7.246;2023-08-06T15:03:43;4.40;;;0.90;;
4096;SDS011;2062;50.694;7.246;2023-08-06T15:06:10;4.13;;;1.08;;
4096;SDS011;2062;50.694;7.246;2023-08-06T15:08:38;3.70;;;0.90;;
4096;SDS011;2062;50.694;7.246;2023-08-06T15:11:05;3.53;;;0.90;;
4096;SDS011;2062;50.694;7.246;2023-08-06T15:13:32;4.90;;;0.98;;
4096;SDS011;2062;50.694;7.246;2023-08-06T15:15:58;5.18;;;0.80;;
4096;SDS011;2062;50.694;7.246;2023-08-06T15:18:25;4.15;;;0.90;;
4096;SDS011;2062;50.694;7.246;2023-08-06T15:20:52;3.20;;;0.70;;
4096;SDS011;2062;50.694;7.246;2023-08-06T15:23:19;3.67;;;0.88;;